You are not logged in, Click here to log in
ICAO: KJFK Country: 美國 紐約市
Latitude: 40.6398 Longitude: -73.7787
Total Arrivals: 25 Total Departures: 22
Latest Arrival: AF22 (LFPG-KJFK)ALAN. LIU Latest Departure: DL460 (KJFK-KATL)ALAN. LIU
Scenery:
METAR : KJFK 180707Z 14004KT 6SM BR SCT003 BKN016 BKN044 24/24 A3000 RMK AO2 CIG 004 W T02390239

約翰·甘迺迪國際機場JFK